sensor_id;sensor_type;location;lat;lon;timestamp;temperature;humidity
39017;DHT22;24784;45.582;5.276;2024-01-11T00:02:23;1.60;99.90
39017;DHT22;24784;45.582;5.276;2024-01-11T00:04:50;1.60;99.90
39017;DHT22;24784;45.582;5.276;2024-01-11T00:07:15;1.50;99.90
39017;DHT22;24784;45.582;5.276;2024-01-11T00:09:42;1.50;99.90
39017;DHT22;24784;45.582;5.276;2024-01-11T00:12:08;1.50;99.90
39017;DHT22;24784;45.582;5.276;2024-01-11T00:14:34;1.50;99.90
39017;DHT22;24784;45.582;5.276;2024-01-11T00:16:59;1.50;99.90
39017;DHT22;24784;45.582;5.276;2024-01-11T00:19:25;1.40;99.90
39017;DHT22;24784;45.582;5.276;2024-01-11T00:21:50;1.40;99.90
39017;DHT22;24784;45.582;5.276;2024-01-11T00:24:16;1.50;99.90
39017;DHT22;24784;45.582;5.276;2024-01-11T00:26:42;1.40;99.90
39017;DHT22;24784;45.582;5.276;2024-01-11T00:29:07;1.40;99.90
39017;DHT22;24784;45.582;5.276;2024-01-11T00:31:33;1.40;99.90
39017;DHT22;24784;45.582;5.276;2024-01-11T00:33:59;1.40;99.90
39017;DHT22;24784;45.582;5.276;2024-01-11T00:36:25;1.40;99.90
39017;DHT22;24784;45.582;5.276;2024-01-11T00:38:50;1.50;99.90
39017;DHT22;24784;45.582;5.276;2024-01-11T00:41:16;1.40;99.90
39017;DHT22;24784;45.582;5.276;2024-01-11T00:43:42;1.50;99.90
39017;DHT22;24784;45.582;5.276;2024-01-11T00:46:08;1.40;99.90
39017;DHT22;24784;45.582;5.276;2024-01-11T00:48:33;1.40;99.90
39017;DHT22;24784;45.582;5.276;2024-01-11T00:50:59;1.40;99.90
39017;DHT22;24784;45.582;5.276;2024-01-11T00:53:24;1.40;99.90
39017;DHT22;24784;45.582;5.276;2024-01-11T00:55:56;1.40;99.90
39017;DHT22;24784;45.582;5.276;2024-01-11T00:58:21;1.40;99.90
39017;DHT22;24784;45.582;5.276;2024-01-11T01:00:47;1.40;99.90
39017;DHT22;24784;45.582;5.276;2024-01-11T01:03:12;1.40;99.90
39017;DHT22;24784;45.582;5.276;2024-01-11T01:05:39;1.40;99.90
39017;DHT22;24784;45.582;5.276;2024-01-11T01:08:05;1.40;99.90
39017;DHT22;24784;45.582;5.276;2024-01-11T01:10:30;1.40;99.90
39017;DHT22;24784;45.582;5.276;2024-01-11T01:12:56;1.40;99.90
39017;DHT22;24784;45.582;5.276;2024-01-11T01:15:22;1.40;99.90
39017;DHT22;24784;45.582;5.276;2024-01-11T01:17:47;1.40;99.90
39017;DHT22;24784;45.582;5.276;2024-01-11T01:20:13;1.40;99.90
39017;DHT22;24784;45.582;5.276;2024-01-11T01:22:40;1.40;99.90
39017;DHT22;24784;45.582;5.276;2024-01-11T01:25:06;1.40;99.90
39017;DHT22;24784;45.582;5.276;2024-01-11T01:27:31;1.40;99.90
39017;DHT22;24784;45.582;5.276;2024-01-11T01:29:57;1.40;99.90
39017;DHT22;24784;45.582;5.276;2024-01-11T01:32:22;1.40;99.90
39017;DHT22;24784;45.582;5.276;2024-01-11T01:34:48;1.40;99.90
39017;DHT22;24784;45.582;5.276;2024-01-11T01:37:14;1.40;99.90
39017;DHT22;24784;45.582;5.276;2024-01-11T01:39:39;1.50;99.90
39017;DHT22;24784;45.582;5.276;2024-01-11T01:42:05;1.40;99.90
39017;DHT22;24784;45.582;5.276;2024-01-11T01:44:32;1.40;99.90
39017;DHT22;24784;45.582;5.276;2024-01-11T01:46:58;1.40;99.90
39017;DHT22;24784;45.582;5.276;2024-01-11T01:49:24;1.50;99.90
39017;DHT22;24784;45.582;5.276;2024-01-11T01:51:51;1.50;99.90
39017;DHT22;24784;45.582;5.276;2024-01-11T01:54:19;1.40;99.90
39017;DHT22;24784;45.582;5.276;2024-01-11T01:56:45;1.40;99.90
39017;DHT22;24784;45.582;5.276;2024-01-11T01:59:11;1.40;99.90
39017;DHT22;24784;45.582;5.276;2024-01-11T02:01:38;1.50;99.90
39017;DHT22;24784;45.582;5.276;2024-01-11T02:04:04;1.50;99.90
39017;DHT22;24784;45.582;5.276;2024-01-11T02:06:32;1.50;99.90
39017;DHT22;24784;45.582;5.276;2024-01-11T02:08:59;1.40;99.90
39017;DHT22;24784;45.582;5.276;2024-01-11T02:11:26;1.40;99.90
39017;DHT22;24784;45.582;5.276;2024-01-11T02:13:53;1.40;99.90
39017;DHT22;24784;45.582;5.276;2024-01-11T02:16:19;1.40;99.90
39017;DHT22;24784;45.582;5.276;2024-01-11T02:18:45;1.40;99.90
39017;DHT22;24784;45.582;5.276;2024-01-11T02:21:14;1.40;99.90
39017;DHT22;24784;45.582;5.276;2024-01-11T02:24:04;1.40;99.90
39017;DHT22;24784;45.582;5.276;2024-01-11T02:26:28;1.40;99.90
39017;DHT22;24784;45.582;5.276;2024-01-11T02:28:54;1.40;99.90
39017;DHT22;24784;45.582;5.276;2024-01-11T02:31:20;1.40;99.90
39017;DHT22;24784;45.582;5.276;2024-01-11T02:33:45;1.40;99.90
39017;DHT22;24784;45.582;5.276;2024-01-11T02:36:11;1.40;99.90
39017;DHT22;24784;45.582;5.276;2024-01-11T02:38:38;1.40;99.90
39017;DHT22;24784;45.582;5.276;2024-01-11T02:41:06;1.50;99.90
39017;DHT22;24784;45.582;5.276;2024-01-11T02:43:32;1.40;99.90
39017;DHT22;24784;45.582;5.276;2024-01-11T02:45:59;1.40;99.90
39017;DHT22;24784;45.582;5.276;2024-01-11T02:48:29;1.40;99.90
39017;DHT22;24784;45.582;5.276;2024-01-11T02:50:56;1.40;99.90
39017;DHT22;24784;45.582;5.276;2024-01-11T02:53:21;1.40;99.90
39017;DHT22;24784;45.582;5.276;2024-01-11T02:55:47;1.40;99.90
39017;DHT22;24784;45.582;5.276;2024-01-11T02:58:12;1.40;99.90
39017;DHT22;24784;45.582;5.276;2024-01-11T03:00:38;1.40;99.90
39017;DHT22;24784;45.582;5.276;2024-01-11T03:03:04;1.40;99.90
39017;DHT22;24784;45.582;5.276;2024-01-11T03:05:29;1.40;99.90
39017;DHT22;24784;45.582;5.276;2024-01-11T03:07:55;1.40;99.90
39017;DHT22;24784;45.582;5.276;2024-01-11T03:10:21;1.40;99.90
39017;DHT22;24784;45.582;5.276;2024-01-11T03:12:46;1.40;99.90
39017;DHT22;24784;45.582;5.276;2024-01-11T03:15:14;1.50;99.90
39017;DHT22;24784;45.582;5.276;2024-01-11T03:17:40;1.40;99.90
39017;DHT22;24784;45.582;5.276;2024-01-11T03:20:06;1.50;99.90
39017;DHT22;24784;45.582;5.276;2024-01-11T03:22:32;1.40;99.90
39017;DHT22;24784;45.582;5.276;2024-01-11T03:24:58;1.50;99.90
39017;DHT22;24784;45.582;5.276;2024-01-11T03:27:24;1.40;99.90
39017;DHT22;24784;45.582;5.276;2024-01-11T03:29:50;1.40;99.90
39017;DHT22;24784;45.582;5.276;2024-01-11T03:32:15;1.50;99.90
39017;DHT22;24784;45.582;5.276;2024-01-11T03:34:41;1.50;99.90
39017;DHT22;24784;45.582;5.276;2024-01-11T03:37:07;1.40;99.90
39017;DHT22;24784;45.582;5.276;2024-01-11T03:39:34;1.50;99.90
39017;DHT22;24784;45.582;5.276;2024-01-11T03:41:59;1.50;99.90
39017;DHT22;24784;45.582;5.276;2024-01-11T03:44:25;1.50;99.90
39017;DHT22;24784;45.582;5.276;2024-01-11T03:46:50;1.50;99.90
39017;DHT22;24784;45.582;5.276;2024-01-11T03:49:17;1.50;99.90
39017;DHT22;24784;45.582;5.276;2024-01-11T03:51:43;1.50;99.90
39017;DHT22;24784;45.582;5.276;2024-01-11T03:54:09;1.50;99.90
39017;DHT22;24784;45.582;5.276;2024-01-11T03:56:38;1.50;99.90
39017;DHT22;24784;45.582;5.276;2024-01-11T03:59:05;1.40;99.90
39017;DHT22;24784;45.582;5.276;2024-01-11T04:01:31;1.50;99.90
39017;DHT22;24784;45.582;5.276;2024-01-11T04:03:57;1.50;99.90
39017;DHT22;24784;45.582;5.276;2024-01-11T04:06:23;1.40;99.90
39017;DHT22;24784;45.582;5.276;2024-01-11T04:08:50;1.50;99.90
39017;DHT22;24784;45.582;5.276;2024-01-11T04:11:17;1.50;99.90
39017;DHT22;24784;45.582;5.276;2024-01-11T04:13:43;1.50;99.90
39017;DHT22;24784;45.582;5.276;2024-01-11T04:16:09;1.40;99.90
39017;DHT22;24784;45.582;5.276;2024-01-11T04:18:34;1.50;99.90
39017;DHT22;24784;45.582;5.276;2024-01-11T04:21:00;1.40;99.90
39017;DHT22;24784;45.582;5.276;2024-01-11T04:23:26;1.40;99.90
39017;DHT22;24784;45.582;5.276;2024-01-11T04:25:52;1.50;99.90
39017;DHT22;24784;45.582;5.276;2024-01-11T04:28:17;1.50;99.90
39017;DHT22;24784;45.582;5.276;2024-01-11T04:30:43;1.50;99.90
39017;DHT22;24784;45.582;5.276;2024-01-11T04:33:09;1.50;99.90
39017;DHT22;24784;45.582;5.276;2024-01-11T04:35:36;1.50;99.90
39017;DHT22;24784;45.582;5.276;2024-01-11T04:38:01;1.50;99.90
39017;DHT22;24784;45.582;5.276;2024-01-11T04:40:27;1.50;99.90
39017;DHT22;24784;45.582;5.276;2024-01-11T04:42:53;1.50;99.90
39017;DHT22;24784;45.582;5.276;2024-01-11T04:45:18;1.50;99.90
39017;DHT22;24784;45.582;5.276;2024-01-11T04:47:44;1.50;99.90
39017;DHT22;24784;45.582;5.276;2024-01-11T04:50:10;1.50;99.90
39017;DHT22;24784;45.582;5.276;2024-01-11T04:52:35;1.50;99.90
39017;DHT22;24784;45.582;5.276;2024-01-11T04:55:01;1.40;99.90
39017;DHT22;24784;45.582;5.276;2024-01-11T04:57:27;1.40;99.90
39017;DHT22;24784;45.582;5.276;2024-01-11T04:59:53;1.40;99.90
39017;DHT22;24784;45.582;5.276;2024-01-11T05:02:20;1.40;99.90
39017;DHT22;24784;45.582;5.276;2024-01-11T05:04:47;1.50;99.90
39017;DHT22;24784;45.582;5.276;2024-01-11T05:07:13;1.50;99.90
39017;DHT22;24784;45.582;5.276;2024-01-11T05:09:38;1.50;99.90
39017;DHT22;24784;45.582;5.276;2024-01-11T05:12:05;1.40;99.90
39017;DHT22;24784;45.582;5.276;2024-01-11T05:14:31;1.40;99.90
39017;DHT22;24784;45.582;5.276;2024-01-11T05:16:56;1.40;99.90
39017;DHT22;24784;45.582;5.276;2024-01-11T05:19:22;1.50;99.90
39017;DHT22;24784;45.582;5.276;2024-01-11T05:21:47;1.40;99.90
39017;DHT22;24784;45.582;5.276;2024-01-11T05:24:13;1.40;99.90
39017;DHT22;24784;45.582;5.276;2024-01-11T05:26:39;1.40;99.90
39017;DHT22;24784;45.582;5.276;2024-01-11T05:29:04;1.50;99.90
39017;DHT22;24784;45.582;5.276;2024-01-11T05:31:30;1.40;99.90
39017;DHT22;24784;45.582;5.276;2024-01-11T05:33:56;1.40;99.90
39017;DHT22;24784;45.582;5.276;2024-01-11T05:36:21;1.50;99.90
39017;DHT22;24784;45.582;5.276;2024-01-11T05:38:47;1.40;99.90
39017;DHT22;24784;45.582;5.276;2024-01-11T05:41:13;1.40;99.90
39017;DHT22;24784;45.582;5.276;2024-01-11T05:43:40;1.40;99.90
39017;DHT22;24784;45.582;5.276;2024-01-11T05:46:06;1.40;99.90
39017;DHT22;24784;45.582;5.276;2024-01-11T05:48:32;1.40;99.90
39017;DHT22;24784;45.582;5.276;2024-01-11T05:50:58;1.40;99.90
39017;DHT22;24784;45.582;5.276;2024-01-11T05:53:25;1.40;99.90
39017;DHT22;24784;45.582;5.276;2024-01-11T05:55:53;1.40;99.90
39017;DHT22;24784;45.582;5.276;2024-01-11T05:58:18;1.40;99.90
39017;DHT22;24784;45.582;5.276;2024-01-11T06:00:44;1.40;99.90
39017;DHT22;24784;45.582;5.276;2024-01-11T06:03:12;1.40;99.90
39017;DHT22;24784;45.582;5.276;2024-01-11T06:05:37;1.50;99.90
39017;DHT22;24784;45.582;5.276;2024-01-11T06:08:03;1.50;99.90
39017;DHT22;24784;45.582;5.276;2024-01-11T06:10:29;1.50;99.90
39017;DHT22;24784;45.582;5.276;2024-01-11T06:12:56;1.50;99.90
39017;DHT22;24784;45.582;5.276;2024-01-11T06:15:22;1.50;99.90
39017;DHT22;24784;45.582;5.276;2024-01-11T06:17:47;1.40;99.90
39017;DHT22;24784;45.582;5.276;2024-01-11T06:20:13;1.50;99.90
39017;DHT22;24784;45.582;5.276;2024-01-11T06:22:39;1.50;99.90
39017;DHT22;24784;45.582;5.276;2024-01-11T06:25:05;1.50;99.90
39017;DHT22;24784;45.582;5.276;2024-01-11T06:27:30;1.50;99.90
39017;DHT22;24784;45.582;5.276;2024-01-11T06:29:56;1.50;99.90
39017;DHT22;24784;45.582;5.276;2024-01-11T06:32:22;1.40;99.90
39017;DHT22;24784;45.582;5.276;2024-01-11T06:34:47;1.50;99.90
39017;DHT22;24784;45.582;5.276;2024-01-11T06:37:13;1.50;99.90
39017;DHT22;24784;45.582;5.276;2024-01-11T06:39:39;1.50;99.90
39017;DHT22;24784;45.582;5.276;2024-01-11T06:42:04;1.50;99.90
39017;DHT22;24784;45.582;5.276;2024-01-11T06:44:30;1.50;99.90
39017;DHT22;24784;45.582;5.276;2024-01-11T06:46:56;1.50;99.90
39017;DHT22;24784;45.582;5.276;2024-01-11T06:49:22;1.50;99.90
39017;DHT22;24784;45.582;5.276;2024-01-11T06:51:47;1.50;99.90
39017;DHT22;24784;45.582;5.276;2024-01-11T06:54:13;1.50;99.90
39017;DHT22;24784;45.582;5.276;2024-01-11T06:56:39;1.50;99.90
39017;DHT22;24784;45.582;5.276;2024-01-11T06:59:05;1.50;99.90
39017;DHT22;24784;45.582;5.276;2024-01-11T07:01:30;1.50;99.90
39017;DHT22;24784;45.582;5.276;2024-01-11T07:03:56;1.50;99.90
39017;DHT22;24784;45.582;5.276;2024-01-11T07:06:21;1.50;99.90
39017;DHT22;24784;45.582;5.276;2024-01-11T07:08:47;1.50;99.90
39017;DHT22;24784;45.582;5.276;2024-01-11T07:11:13;1.50;99.90
39017;DHT22;24784;45.582;5.276;2024-01-11T07:13:38;1.50;99.90
39017;DHT22;24784;45.582;5.276;2024-01-11T07:16:05;1.50;99.90
39017;DHT22;24784;45.582;5.276;2024-01-11T07:18:31;1.50;99.90
39017;DHT22;24784;45.582;5.276;2024-01-11T07:20:57;1.50;99.90
39017;DHT22;24784;45.582;5.276;2024-01-11T07:23:23;1.50;99.90
39017;DHT22;24784;45.582;5.276;2024-01-11T07:25:49;1.50;99.90
39017;DHT22;24784;45.582;5.276;2024-01-11T07:28:15;1.50;99.90
39017;DHT22;24784;45.582;5.276;2024-01-11T07:30:42;1.50;99.90
39017;DHT22;24784;45.582;5.276;2024-01-11T07:33:08;1.50;99.90
39017;DHT22;24784;45.582;5.276;2024-01-11T07:35:34;1.50;99.90
39017;DHT22;24784;45.582;5.276;2024-01-11T07:38:00;1.50;99.90
39017;DHT22;24784;45.582;5.276;2024-01-11T07:40:26;1.50;99.90
39017;DHT22;24784;45.582;5.276;2024-01-11T07:42:52;1.50;99.90
39017;DHT22;24784;45.582;5.276;2024-01-11T07:45:18;1.50;99.90
39017;DHT22;24784;45.582;5.276;2024-01-11T07:47:44;1.50;99.90
39017;DHT22;24784;45.582;5.276;2024-01-11T07:50:10;1.60;99.90
39017;DHT22;24784;45.582;5.276;2024-01-11T07:52:36;1.50;99.90
39017;DHT22;24784;45.582;5.276;2024-01-11T07:55:07;1.50;99.90
39017;DHT22;24784;45.582;5.276;2024-01-11T07:57:33;1.50;99.90
39017;DHT22;24784;45.582;5.276;2024-01-11T08:00:00;1.50;99.90
39017;DHT22;24784;45.582;5.276;2024-01-11T08:02:26;1.50;99.90
39017;DHT22;24784;45.582;5.276;2024-01-11T08:05:00;1.60;99.90
39017;DHT22;24784;45.582;5.276;2024-01-11T08:07:29;1.50;99.90
39017;DHT22;24784;45.582;5.276;2024-01-11T08:09:55;1.60;99.90
39017;DHT22;24784;45.582;5.276;2024-01-11T08:12:20;1.60;99.90
39017;DHT22;24784;45.582;5.276;2024-01-11T08:14:46;1.60;99.90
39017;DHT22;24784;45.582;5.276;2024-01-11T08:17:13;1.50;99.90
39017;DHT22;24784;45.582;5.276;2024-01-11T08:19:39;1.60;99.90
39017;DHT22;24784;45.582;5.276;2024-01-11T08:22:05;1.50;99.90
39017;DHT22;24784;45.582;5.276;2024-01-11T08:24:31;1.50;99.90
39017;DHT22;24784;45.582;5.276;2024-01-11T08:26:57;1.50;99.90
39017;DHT22;24784;45.582;5.276;2024-01-11T08:29:23;1.50;99.90
39017;DHT22;24784;45.582;5.276;2024-01-11T08:31:50;1.50;99.90
39017;DHT22;24784;45.582;5.276;2024-01-11T08:34:15;1.50;99.90
39017;DHT22;24784;45.582;5.276;2024-01-11T08:36:42;1.50;99.90
39017;DHT22;24784;45.582;5.276;2024-01-11T08:39:07;1.40;99.90
39017;DHT22;24784;45.582;5.276;2024-01-11T08:41:36;1.40;99.90
39017;DHT22;24784;45.582;5.276;2024-01-11T08:44:03;1.40;99.90
39017;DHT22;24784;45.582;5.276;2024-01-11T08:46:31;1.40;99.90
39017;DHT22;24784;45.582;5.276;2024-01-11T08:48:59;1.40;99.90
39017;DHT22;24784;45.582;5.276;2024-01-11T08:51:25;1.30;99.90
39017;DHT22;24784;45.582;5.276;2024-01-11T08:53:51;1.30;99.90
39017;DHT22;24784;45.582;5.276;2024-01-11T08:56:18;1.30;99.90
39017;DHT22;24784;45.582;5.276;2024-01-11T08:58:44;1.30;99.90
39017;DHT22;24784;45.582;5.276;2024-01-11T09:01:09;1.20;99.90
39017;DHT22;24784;45.582;5.276;2024-01-11T09:03:35;1.30;99.90
39017;DHT22;24784;45.582;5.276;2024-01-11T09:06:04;1.20;99.90
39017;DHT22;24784;45.582;5.276;2024-01-11T09:08:29;1.20;99.90
39017;DHT22;24784;45.582;5.276;2024-01-11T09:10:56;1.20;99.90
39017;DHT22;24784;45.582;5.276;2024-01-11T09:13:23;1.20;99.90
39017;DHT22;24784;45.582;5.276;2024-01-11T09:15:49;1.20;99.90
39017;DHT22;24784;45.582;5.276;2024-01-11T09:18:14;1.30;99.90
39017;DHT22;24784;45.582;5.276;2024-01-11T09:20:41;1.30;99.90
39017;DHT22;24784;45.582;5.276;2024-01-11T09:23:07;1.30;99.90
39017;DHT22;24784;45.582;5.276;2024-01-11T09:25:33;1.30;99.90
39017;DHT22;24784;45.582;5.276;2024-01-11T09:27:59;1.30;99.90
39017;DHT22;24784;45.582;5.276;2024-01-11T09:30:25;1.30;99.90
39017;DHT22;24784;45.582;5.276;2024-01-11T09:32:50;1.30;99.90
39017;DHT22;24784;45.582;5.276;2024-01-11T09:35:16;1.40;99.90
39017;DHT22;24784;45.582;5.276;2024-01-11T09:37:42;1.40;99.90
39017;DHT22;24784;45.582;5.276;2024-01-11T09:40:09;1.50;99.90
39017;DHT22;24784;45.582;5.276;2024-01-11T09:42:39;1.50;99.90
39017;DHT22;24784;45.582;5.276;2024-01-11T09:45:11;1.40;99.90
39017;DHT22;24784;45.582;5.276;2024-01-11T09:47:39;1.40;99.90
39017;DHT22;24784;45.582;5.276;2024-01-11T09:50:06;1.50;99.90
39017;DHT22;24784;45.582;5.276;2024-01-11T09:52:32;1.50;99.90
39017;DHT22;24784;45.582;5.276;2024-01-11T09:54:58;1.50;99.90
39017;DHT22;24784;45.582;5.276;2024-01-11T09:57:29;1.50;99.90
39017;DHT22;24784;45.582;5.276;2024-01-11T09:59:56;1.50;99.90
39017;DHT22;24784;45.582;5.276;2024-01-11T10:02:26;1.50;99.90
39017;DHT22;24784;45.582;5.276;2024-01-11T10:04:52;1.50;99.90
39017;DHT22;24784;45.582;5.276;2024-01-11T10:07:22;1.50;99.90
39017;DHT22;24784;45.582;5.276;2024-01-11T10:09:50;1.50;99.90
39017;DHT22;24784;45.582;5.276;2024-01-11T10:12:17;1.60;99.90
39017;DHT22;24784;45.582;5.276;2024-01-11T10:14:46;1.60;99.90
39017;DHT22;24784;45.582;5.276;2024-01-11T10:17:11;1.60;99.90
39017;DHT22;24784;45.582;5.276;2024-01-11T10:19:37;1.50;99.90
39017;DHT22;24784;45.582;5.276;2024-01-11T10:22:03;1.60;99.90
39017;DHT22;24784;45.582;5.276;2024-01-11T10:24:30;1.60;99.90
39017;DHT22;24784;45.582;5.276;2024-01-11T10:26:56;1.70;99.90
39017;DHT22;24784;45.582;5.276;2024-01-11T10:29:22;1.70;99.90
39017;DHT22;24784;45.582;5.276;2024-01-11T10:31:49;1.70;99.90
39017;DHT22;24784;45.582;5.276;2024-01-11T10:34:16;1.70;99.90
39017;DHT22;24784;45.582;5.276;2024-01-11T10:36:42;1.70;99.90
39017;DHT22;24784;45.582;5.276;2024-01-11T10:39:09;1.70;99.90
39017;DHT22;24784;45.582;5.276;2024-01-11T10:41:48;1.60;99.90
39017;DHT22;24784;45.582;5.276;2024-01-11T10:44:20;1.70;99.90
39017;DHT22;24784;45.582;5.276;2024-01-11T10:46:50;1.70;99.90
39017;DHT22;24784;45.582;5.276;2024-01-11T10:49:17;1.70;99.90
39017;DHT22;24784;45.582;5.276;2024-01-11T10:51:59;1.80;99.90
39017;DHT22;24784;45.582;5.276;2024-01-11T10:54:27;1.80;99.90
39017;DHT22;24784;45.582;5.276;2024-01-11T10:56:53;1.70;99.90
39017;DHT22;24784;45.582;5.276;2024-01-11T10:59:21;1.70;99.90
39017;DHT22;24784;45.582;5.276;2024-01-11T11:01:54;1.70;99.90
39017;DHT22;24784;45.582;5.276;2024-01-11T11:04:22;1.60;99.90
39017;DHT22;24784;45.582;5.276;2024-01-11T11:06:55;1.70;99.90
39017;DHT22;24784;45.582;5.276;2024-01-11T11:09:22;1.60;99.90
39017;DHT22;24784;45.582;5.276;2024-01-11T11:11:49;1.60;99.90
39017;DHT22;24784;45.582;5.276;2024-01-11T11:14:15;1.70;99.90
39017;DHT22;24784;45.582;5.276;2024-01-11T11:16:44;1.70;99.90
39017;DHT22;24784;45.582;5.276;2024-01-11T11:19:10;1.70;99.90
39017;DHT22;24784;45.582;5.276;2024-01-11T11:21:44;1.60;99.90
39017;DHT22;24784;45.582;5.276;2024-01-11T11:24:12;1.60;99.90
39017;DHT22;24784;45.582;5.276;2024-01-11T11:26:37;1.60;99.90
39017;DHT22;24784;45.582;5.276;2024-01-11T11:29:03;1.60;99.90
39017;DHT22;24784;45.582;5.276;2024-01-11T11:31:43;1.60;99.90
39017;DHT22;24784;45.582;5.276;2024-01-11T11:34:12;1.60;99.90
39017;DHT22;24784;45.582;5.276;2024-01-11T11:36:40;1.50;99.90
39017;DHT22;24784;45.582;5.276;2024-01-11T11:39:10;1.50;99.90
39017;DHT22;24784;45.582;5.276;2024-01-11T11:41:39;1.50;99.90
39017;DHT22;24784;45.582;5.276;2024-01-11T11:44:06;1.50;99.90
39017;DHT22;24784;45.582;5.276;2024-01-11T11:46:32;1.50;99.90
39017;DHT22;24784;45.582;5.276;2024-01-11T11:48:58;1.50;99.90
39017;DHT22;24784;45.582;5.276;2024-01-11T11:51:25;1.50;99.90
39017;DHT22;24784;45.582;5.276;2024-01-11T11:53:52;1.40;99.90
39017;DHT22;24784;45.582;5.276;2024-01-11T11:56:20;1.50;99.90
39017;DHT22;24784;45.582;5.276;2024-01-11T11:58:46;1.50;99.90
39017;DHT22;24784;45.582;5.276;2024-01-11T12:01:14;1.50;99.90
39017;DHT22;24784;45.582;5.276;2024-01-11T12:03:44;1.40;99.90
39017;DHT22;24784;45.582;5.276;2024-01-11T12:06:22;1.40;99.90
39017;DHT22;24784;45.582;5.276;2024-01-11T12:08:52;1.40;99.90
39017;DHT22;24784;45.582;5.276;2024-01-11T12:11:21;1.40;99.90
39017;DHT22;24784;45.582;5.276;2024-01-11T12:13:49;1.40;99.90
39017;DHT22;24784;45.582;5.276;2024-01-11T12:16:14;1.40;99.90
39017;DHT22;24784;45.582;5.276;2024-01-11T12:18:41;1.40;99.90
39017;DHT22;24784;45.582;5.276;2024-01-11T12:21:07;1.40;99.90
39017;DHT22;24784;45.582;5.276;2024-01-11T12:23:34;1.40;99.90
39017;DHT22;24784;45.582;5.276;2024-01-11T12:26:03;1.30;99.90
39017;DHT22;24784;45.582;5.276;2024-01-11T12:28:33;1.30;99.90
39017;DHT22;24784;45.582;5.276;2024-01-11T12:30:59;1.40;99.90
39017;DHT22;24784;45.582;5.276;2024-01-11T12:33:26;1.40;99.90
39017;DHT22;24784;45.582;5.276;2024-01-11T12:35:51;1.40;99.90
39017;DHT22;24784;45.582;5.276;2024-01-11T12:38:17;1.30;99.90
39017;DHT22;24784;45.582;5.276;2024-01-11T12:40:43;1.30;99.90
39017;DHT22;24784;45.582;5.276;2024-01-11T12:43:11;1.30;99.90
39017;DHT22;24784;45.582;5.276;2024-01-11T12:45:37;1.20;99.90
39017;DHT22;24784;45.582;5.276;2024-01-11T12:48:06;1.20;99.90
39017;DHT22;24784;45.582;5.276;2024-01-11T12:50:33;1.10;99.90
39017;DHT22;24784;45.582;5.276;2024-01-11T12:55:35;1.20;99.90
39017;DHT22;24784;45.582;5.276;2024-01-11T12:58:08;1.30;99.90
39017;DHT22;24784;45.582;5.276;2024-01-11T13:00:37;1.20;99.90
39017;DHT22;24784;45.582;5.276;2024-01-11T13:03:07;1.20;99.90
39017;DHT22;24784;45.582;5.276;2024-01-11T13:05:35;1.20;99.90
39017;DHT22;24784;45.582;5.276;2024-01-11T13:08:02;1.20;99.90
39017;DHT22;24784;45.582;5.276;2024-01-11T13:10:29;1.20;99.90
39017;DHT22;24784;45.582;5.276;2024-01-11T13:12:57;1.20;99.90
39017;DHT22;24784;45.582;5.276;2024-01-11T13:15:23;1.20;99.90
39017;DHT22;24784;45.582;5.276;2024-01-11T13:17:50;1.30;99.90
39017;DHT22;24784;45.582;5.276;2024-01-11T13:20:15;1.30;99.90
39017;DHT22;24784;45.582;5.276;2024-01-11T13:22:41;1.30;99.90
39017;DHT22;24784;45.582;5.276;2024-01-11T13:25:06;1.30;99.90
39017;DHT22;24784;45.582;5.276;2024-01-11T13:27:32;1.30;99.90
39017;DHT22;24784;45.582;5.276;2024-01-11T13:29:58;1.30;99.90
39017;DHT22;24784;45.582;5.276;2024-01-11T13:32:24;1.30;99.90
39017;DHT22;24784;45.582;5.276;2024-01-11T13:34:49;1.30;99.90
39017;DHT22;24784;45.582;5.276;2024-01-11T13:37:18;1.30;99.90
39017;DHT22;24784;45.582;5.276;2024-01-11T13:39:44;1.30;99.90
39017;DHT22;24784;45.582;5.276;2024-01-11T13:42:10;1.40;99.90
39017;DHT22;24784;45.582;5.276;2024-01-11T13:44:36;1.40;99.90
39017;DHT22;24784;45.582;5.276;2024-01-11T13:47:02;1.30;99.90
39017;DHT22;24784;45.582;5.276;2024-01-11T13:49:27;1.30;99.90
39017;DHT22;24784;45.582;5.276;2024-01-11T13:51:53;1.30;99.90
39017;DHT22;24784;45.582;5.276;2024-01-11T13:54:19;1.30;99.90
39017;DHT22;24784;45.582;5.276;2024-01-11T13:56:46;1.30;99.90
39017;DHT22;24784;45.582;5.276;2024-01-11T13:59:12;1.30;99.90
39017;DHT22;24784;45.582;5.276;2024-01-11T14:01:37;1.30;99.90
39017;DHT22;24784;45.582;5.276;2024-01-11T14:04:03;1.30;99.90
39017;DHT22;24784;45.582;5.276;2024-01-11T14:06:29;1.30;99.90
39017;DHT22;24784;45.582;5.276;2024-01-11T14:08:55;1.30;99.90
39017;DHT22;24784;45.582;5.276;2024-01-11T14:11:21;1.40;99.90
39017;DHT22;24784;45.582;5.276;2024-01-11T14:13:46;1.30;99.90
39017;DHT22;24784;45.582;5.276;2024-01-11T14:16:12;1.20;99.90
39017;DHT22;24784;45.582;5.276;2024-01-11T14:18:39;1.30;99.90
39017;DHT22;24784;45.582;5.276;2024-01-11T14:21:05;1.30;99.90
39017;DHT22;24784;45.582;5.276;2024-01-11T14:23:33;1.30;99.90
39017;DHT22;24784;45.582;5.276;2024-01-11T14:25:59;1.40;99.90
39017;DHT22;24784;45.582;5.276;2024-01-11T14:28:25;1.40;99.90
39017;DHT22;24784;45.582;5.276;2024-01-11T14:30:50;1.40;99.90
39017;DHT22;24784;45.582;5.276;2024-01-11T14:33:16;1.40;99.90
39017;DHT22;24784;45.582;5.276;2024-01-11T14:35:42;1.40;99.90
39017;DHT22;24784;45.582;5.276;2024-01-11T14:38:08;1.40;99.90
39017;DHT22;24784;45.582;5.276;2024-01-11T14:40:34;1.40;99.90
39017;DHT22;24784;45.582;5.276;2024-01-11T14:42:59;1.40;99.90
39017;DHT22;24784;45.582;5.276;2024-01-11T14:45:25;1.30;99.90
39017;DHT22;24784;45.582;5.276;2024-01-11T14:47:52;1.40;99.90
39017;DHT22;24784;45.582;5.276;2024-01-11T14:50:18;1.40;99.90
39017;DHT22;24784;45.582;5.276;2024-01-11T14:52:43;1.40;99.90
39017;DHT22;24784;45.582;5.276;2024-01-11T14:55:09;1.30;99.90
39017;DHT22;24784;45.582;5.276;2024-01-11T14:57:35;1.30;99.90
39017;DHT22;24784;45.582;5.276;2024-01-11T15:00:01;1.30;99.90
39017;DHT22;24784;45.582;5.276;2024-01-11T15:02:27;1.30;99.90
39017;DHT22;24784;45.582;5.276;2024-01-11T15:04:53;1.30;99.90
39017;DHT22;24784;45.582;5.276;2024-01-11T15:07:18;1.40;99.90
39017;DHT22;24784;45.582;5.276;2024-01-11T15:09:44;1.40;99.90
39017;DHT22;24784;45.582;5.276;2024-01-11T15:12:10;1.30;99.90
39017;DHT22;24784;45.582;5.276;2024-01-11T15:14:35;1.30;99.90
39017;DHT22;24784;45.582;5.276;2024-01-11T15:17:01;1.30;99.90
39017;DHT22;24784;45.582;5.276;2024-01-11T15:19:27;1.30;99.90
39017;DHT22;24784;45.582;5.276;2024-01-11T15:21:53;1.30;99.90
39017;DHT22;24784;45.582;5.276;2024-01-11T15:24:19;1.30;99.90
39017;DHT22;24784;45.582;5.276;2024-01-11T15:26:45;1.30;99.90
39017;DHT22;24784;45.582;5.276;2024-01-11T15:29:11;1.40;99.90
39017;DHT22;24784;45.582;5.276;2024-01-11T15:31:37;1.40;99.90
39017;DHT22;24784;45.582;5.276;2024-01-11T15:34:05;1.30;99.90
39017;DHT22;24784;45.582;5.276;2024-01-11T15:36:31;1.40;99.90
39017;DHT22;24784;45.582;5.276;2024-01-11T15:38:56;1.30;99.90
39017;DHT22;24784;45.582;5.276;2024-01-11T15:41:22;1.40;99.90
39017;DHT22;24784;45.582;5.276;2024-01-11T15:43:48;1.30;99.90